Kamera more information Kamera


Thunder radar more information blitzortung!


Rain radar more information rain snow radar



No particular awareness of the weather is required.    There are no Weather-warnings

Nearby METAR Reports

   
EHVK - Volkel Rnlafb, Netherlands
Distance from station: SW 18km
Updated: 28-01-2021 05:25
Fog, Overcast  
Fog, Overcast  
   Wind: SSE 5.6 km/h
Wind: SSE 5.6 km/h
Temperature: 6°C
Wind Chill: 5°C
Dew Point: 5°C
Humidity: 93%
Barometer: 1006 hPa
Clouds: Overcast
Visibility: 1km
Cloud details: Overcast
EHVK 280425Z AUTO 15003KT 0450 FG OVC000 06/05 Q1006 RED
EDLV - Niederrhein, Germany
Distance from station: SE 25km
Updated: 25-01-2021 23:50
NOT Current
Mostly Cloudy  
Mostly Cloudy  
   Wind: WSW 20.4 km/h
Wind: WSW 20.4 km/h
Temperature: 3°C
Wind Chill: -2°C
Dew Point: 1°C
Humidity: 87%
Barometer: 1009 hPa
Clouds: Mostly Cloudy
Visibility: More than 10km
Cloud details: Mostly Cloudy 457.2 m
EDLV 252250Z 24011KT 9999 BKN015 03/01 Q1009
EHDL - Deelen Rnlafb, Netherlands
Distance from station: N 35km
Updated: 28-01-2021 05:25
Mist, Overcast  
Mist, Overcast  
   Wind: varies 3.7 km/h
Wind: varies 3.7 km/h
Temperature: 5°C
Dew Point: 5°C
Humidity: 100%
Barometer: 1006 hPa
Clouds: Overcast
Visibility: 4km
Cloud details: Overcast 121.9 m
EHDL 280425Z AUTO VRB02KT 3800 BR OVC004 05/05 Q1006 YLO
EHEH - Eindhoven Rnlafb, Netherlands
Distance from station: SW 48km
Updated: 28-01-2021 05:48
Light Rain, Overcast  
Light Rain, Overcast  
   Wind: SE 11.1 km/h
Wind: SE 11.1 km/h
Temperature: 5°C
Wind Chill: 2°C
Dew Point: 5°C
Humidity: 100%
Barometer: 1005 hPa
Clouds: Overcast
Visibility: 3km
Cloud details: Partly Cloudy 61 m,
Mostly Cloudy 91.4 m,
Overcast 243.8 m
EHEH 280448Z AUTO 14006KT 3000 -RA SCT002 BKN003 OVC008 05/05 Q1005 AMB
EHGR - Gilze-Rijen Rnla, Netherlands
Distance from station: WSW 70km
Updated: 28-01-2021 05:25
Light Rain, Overcast  
Light Rain, Overcast  
   Wind: SSE 7.4 km/h
Wind: SSE 7.4 km/h
Temperature: 6°C
Wind Chill: 4°C
Dew Point: 6°C
Humidity: 100%
Barometer: 1005 hPa
Clouds: Overcast
Visibility: 3km
Cloud details: Partly Cloudy 30.5 m,
Overcast 61 m
EHGR 280425Z AUTO 15004KT 3100 -RA SCT001 OVC002 06/06 Q1005 RED
EBBL - Kleine-Brogel(Ba, Belgium
Distance from station: SSW 71km
Updated: 28-01-2021 05:25
Light Rain, Overcast  
Light Rain, Overcast  
   Wind: varies 3.7 km/h
Wind: varies 3.7 km/h
Temperature: 5°C
Dew Point: 5°C
Humidity: 100%
Barometer: 1006 hPa
Clouds: Overcast
Visibility: 5km
Cloud details: Mostly Cloudy 91.4 m,
Mostly Cloudy 457.2 m,
Overcast 548.6 m
EBBL 280425Z AUTO VRB02KT 5000 -RA BKN003/// BKN015/// OVC018/// 05/05 Q1006 YLO

Script developed by  Saratoga-weather.org Adapted for the template by  Weerstation Leuven